Time;durP1;ratioP1;P1;durP2;ratioP2;P2;SDS_P1;SDS_P2;PMS_P1;PMS_P2;Temp;Humidity;BMP_temperature;BMP_pressure;BME280_temperature;BME280_humidity;BME280_pressure;Samples;Min_cycle;Max_cycle;Signal;HPM_P1;HPM_P2
2023/04/09 00:02:14;;;;;;;18.92;16.20;;;;;;;7.38;64.30;99747.28;4481189;32;32581;-83
2023/04/09 00:04:42;;;;;;;21.87;17.30;;;;;;;7.27;64.50;99746.03;4481023;32;34675;-83
2023/04/09 00:07:10;;;;;;;23.00;17.12;;;;;;;7.26;64.68;99745.16;4494526;31;33968;-83
2023/04/09 00:09:37;;;;;;;19.50;16.55;;;;;;;7.28;64.70;99756.41;4496816;31;33687;-83
2023/04/09 00:12:05;;;;;;;21.95;15.60;;;;;;;7.31;64.66;99747.88;4498240;31;33288;-83
2023/04/09 00:14:32;;;;;;;18.62;15.85;;;;;;;7.52;63.92;99747.75;4483857;31;34297;-83
2023/04/09 00:17:01;;;;;;;17.50;15.32;;;;;;;7.42;64.32;99751.72;4498008;31;34532;-83
2023/04/09 00:19:29;;;;;;;19.20;15.27;;;;;;;7.20;64.74;99742.37;4496933;31;34481;-84
2023/04/09 00:21:56;;;;;;;18.23;15.63;;;;;;;7.23;64.77;99747.63;4485546;31;34089;-84
2023/04/09 00:24:23;;;;;;;18.17;14.82;;;;;;;7.14;65.15;99749.87;4481831;31;34595;-83
2023/04/09 00:26:52;;;;;;;18.35;15.55;;;;;;;7.36;64.74;99737.75;4481767;31;34651;-84
2023/04/09 00:29:19;;;;;;;18.50;15.63;;;;;;;7.41;64.57;99738.78;4480179;32;33751;-83
2023/04/09 00:31:47;;;;;;;19.15;14.57;;;;;;;7.32;64.76;99742.81;4481589;31;33607;-83
2023/04/09 00:34:15;;;;;;;19.42;14.35;;;;;;;7.46;64.36;99747.53;4481795;31;34922;-83
2023/04/09 00:36:42;;;;;;;18.10;14.45;;;;;;;7.16;64.81;99737.94;4482405;31;33804;-83
2023/04/09 00:39:10;;;;;;;17.70;13.90;;;;;;;7.03;65.52;99746.03;4485207;31;33952;-84
2023/04/09 00:41:38;;;;;;;18.23;14.20;;;;;;;7.30;64.91;99746.12;4485016;31;34005;-83
2023/04/09 00:44:05;;;;;;;20.27;14.40;;;;;;;7.61;63.83;99737.75;4483736;31;33844;-83
2023/04/09 00:46:33;;;;;;;16.75;13.85;;;;;;;7.57;63.73;99744.50;4483596;31;34237;-82
2023/04/09 00:49:00;;;;;;;17.65;14.40;;;;;;;7.32;64.21;99739.34;4484943;31;34421;-83
2023/04/09 00:51:28;;;;;;;18.85;14.63;;;;;;;7.42;64.04;99736.25;4487022;31;33544;-83
2023/04/09 00:53:56;;;;;;;17.55;14.18;;;;;;;7.37;63.95;99732.63;4483394;31;34344;-83
2023/04/09 00:56:24;;;;;;;18.23;13.95;;;;;;;7.42;63.90;99731.06;4482068;32;34596;-83
2023/04/09 00:58:52;;;;;;;18.23;14.13;;;;;;;7.40;64.13;99729.28;4482996;31;33837;-83
2023/04/09 01:01:21;;;;;;;19.17;15.00;;;;;;;7.62;63.58;99731.78;4482035;32;34432;-83
2023/04/09 01:03:48;;;;;;;18.95;15.68;;;;;;;7.52;63.59;99732.28;4483317;31;33661;-83
2023/04/09 01:06:40;;;;;;;18.35;15.05;;;;;;;7.33;64.00;99730.78;4481827;31;34172;-83
2023/04/09 01:09:17;;;;;;;18.73;14.52;;;;;;;7.43;63.95;99732.84;4488562;31;33463;-83
2023/04/09 01:12:01;;;;;;;17.55;14.85;;;;;;;7.57;63.43;99736.75;4482385;31;33313;-83
2023/04/09 01:14:36;;;;;;;21.25;14.52;;;;;;;7.54;63.32;99728.06;4483410;31;34027;-83
2023/04/09 01:17:09;;;;;;;17.67;13.45;;;;;;;7.41;63.76;99729.34;4481985;31;35129;-83
2023/04/09 01:19:58;;;;;;;19.25;15.43;;;;;;;7.41;63.59;99731.03;4482468;32;34416;-83
2023/04/09 01:22:56;;;;;;;21.15;16.40;;;;;;;7.47;63.45;99732.13;4484261;31;33316;-83
2023/04/09 01:25:45;;;;;;;19.80;16.77;;;;;;;7.24;63.92;99735.63;4483529;31;33521;-83
2023/04/09 01:28:25;;;;;;;20.62;16.30;;;;;;;6.92;64.95;99732.75;4481843;31;35024;-83
2023/04/09 01:30:58;;;;;;;23.02;17.58;;;;;;;6.80;65.59;99728.03;4482241;32;34727;-83
2023/04/09 01:33:26;;;;;;;21.60;17.70;;;;;;;6.99;65.32;99742.47;4488327;31;33042;-84
2023/04/09 01:35:53;;;;;;;24.08;19.80;;;;;;;7.20;64.78;99739.78;4481712;32;33931;-83
2023/04/09 01:38:21;;;;;;;23.50;19.92;;;;;;;6.80;65.66;99743.50;4481356;31;34981;-83
2023/04/09 01:40:49;;;;;;;24.10;19.87;;;;;;;6.90;65.58;99743.84;4473403;31;33263;-83
2023/04/09 01:43:20;;;;;;;20.33;17.75;;;;;;;6.75;66.18;99742.47;4481606;31;33157;-83
2023/04/09 01:45:47;;;;;;;25.55;20.58;;;;;;;6.92;65.88;99744.78;4481797;32;34258;-83
2023/04/09 01:48:15;;;;;;;24.12;19.50;;;;;;;7.03;65.37;99743.47;4481596;31;34164;-83
2023/04/09 01:50:43;;;;;;;23.10;18.80;;;;;;;7.09;64.96;99746.28;4481993;32;33829;-83
2023/04/09 01:53:11;;;;;;;24.42;20.00;;;;;;;7.13;65.04;99750.72;4482643;31;33263;-82
2023/04/09 01:55:38;;;;;;;25.67;20.58;;;;;;;7.10;64.96;99737.72;4480945;32;33965;-83
2023/04/09 01:58:06;;;;;;;23.27;18.67;;;;;;;7.25;64.60;99735.66;4481429;32;34275;-84
2023/04/09 02:00:45;;;;;;;24.48;19.73;;;;;;;7.24;64.60;99736.50;4483194;31;33164;-83
2023/04/09 02:03:17;;;;;;;23.62;19.23;;;;;;;7.31;64.53;99737.56;4481324;31;33534;-83
2023/04/09 02:05:55;;;;;;;24.60;19.52;;;;;;;7.43;63.97;99738.00;4469489;32;33813;-84
2023/04/09 02:08:23;;;;;;;24.17;19.65;;;;;;;7.19;64.43;99735.44;4482775;31;34888;-83
2023/04/09 02:10:56;;;;;;;23.12;18.73;;;;;;;6.97;65.12;99740.66;4482947;31;33652;-83
2023/04/09 02:13:25;;;;;;;22.35;18.17;;;;;;;7.03;65.18;99741.75;4480710;31;34214;-83
2023/04/09 02:15:55;;;;;;;23.33;18.87;;;;;;;7.09;64.82;99743.69;4482849;31;35008;-83
2023/04/09 02:18:28;;;;;;;22.13;17.60;;;;;;;7.22;64.53;99732.09;4481609;31;34002;-83
2023/04/09 02:20:57;;;;;;;21.15;17.73;;;;;;;7.24;64.29;99728.75;4481526;32;34508;-84
2023/04/09 02:23:26;;;;;;;23.27;17.80;;;;;;;6.97;64.09;99740.66;4483109;31;34247;-83
2023/04/09 02:25:53;;;;;;;22.13;17.17;;;;;;;7.00;64.05;99740.78;4483054;31;33406;-83
2023/04/09 02:28:21;;;;;;;21.30;17.37;;;;;;;7.07;63.86;99732.44;4481016;32;34444;-84
2023/04/09 02:30:50;;;;;;;21.58;16.77;;;;;;;7.04;63.57;99732.31;4482874;31;33922;-84
2023/04/09 02:33:18;;;;;;;18.15;15.52;;;;;;;6.91;63.50;99735.28;4483115;31;34368;-84
2023/04/09 02:35:46;;;;;;;20.08;15.75;;;;;;;7.02;62.89;99727.13;4482543;31;33788;-84
2023/04/09 02:38:14;;;;;;;18.40;14.30;;;;;;;7.08;62.76;99729.03;4483225;31;33765;-84
2023/04/09 02:40:42;;;;;;;19.85;15.38;;;;;;;7.02;62.15;99729.69;4482651;31;33916;-84
2023/04/09 02:43:10;;;;;;;20.23;15.98;;;;;;;6.87;62.22;99726.56;4483215;31;33407;-83
2023/04/09 02:45:37;;;;;;;20.77;16.92;;;;;;;6.72;62.37;99728.59;4482760;31;33921;-82
2023/04/09 02:48:05;;;;;;;22.92;16.92;;;;;;;6.72;62.49;99728.59;4482757;31;34355;-83
2023/04/09 02:50:33;;;;;;;20.48;17.30;;;;;;;6.59;62.81;99722.06;4482909;31;34196;-84
2023/04/09 02:53:02;;;;;;;23.33;16.92;;;;;;;6.55;63.00;99720.22;4481395;31;34312;-83
2023/04/09 02:55:29;;;;;;;19.52;16.37;;;;;;;6.56;63.29;99720.28;4482424;31;33904;-83
2023/04/09 02:57:57;;;;;;;25.05;18.48;;;;;;;6.33;64.13;99722.00;4476805;31;33633;-84
2023/04/09 03:00:24;;;;;;;21.05;16.70;;;;;;;6.55;63.72;99726.28;4482732;31;33416;-84
2023/04/09 03:02:52;;;;;;;19.95;17.37;;;;;;;6.55;63.79;99726.28;4482968;31;33201;-83
2023/04/09 03:05:21;;;;;;;20.60;17.02;;;;;;;6.61;63.59;99722.16;4480117;32;32787;-83
2023/04/09 03:07:50;;;;;;;22.98;18.23;;;;;;;6.58;63.69;99722.91;4481148;31;33188;-83
2023/04/09 03:10:17;;;;;;;21.98;17.17;;;;;;;6.40;64.09;99727.37;4481044;32;34431;-83
2023/04/09 03:12:46;;;;;;;21.85;17.20;;;;;;;6.57;63.51;99728.88;4493579;31;33533;-83
2023/04/09 03:15:14;;;;;;;20.00;16.60;;;;;;;6.61;63.12;99724.72;4482832;31;32692;-83
2023/04/09 03:17:41;;;;;;;18.70;15.73;;;;;;;6.48;63.33;99720.84;4482557;31;34160;-84
2023/04/09 03:20:09;;;;;;;18.25;14.23;;;;;;;6.76;62.33;99723.59;4480994;31;32693;-84
2023/04/09 03:22:38;;;;;;;19.30;15.52;;;;;;;6.56;62.31;99729.72;4482700;31;33542;-84
2023/04/09 03:25:06;;;;;;;19.23;13.95;;;;;;;6.48;62.41;99723.41;4482609;31;33668;-83
2023/04/09 03:27:34;;;;;;;17.95;14.05;;;;;;;6.55;61.86;99725.38;4484019;31;34579;-84
2023/04/09 03:30:02;;;;;;;19.10;15.52;;;;;;;6.49;62.01;99720.00;4468384;31;33579;-83
2023/04/09 03:32:30;;;;;;;19.75;15.73;;;;;;;6.40;62.17;99724.78;4482546;31;33341;-83
2023/04/09 03:34:58;;;;;;;18.23;15.55;;;;;;;6.21;62.68;99726.69;4480950;31;33996;-83
2023/04/09 03:37:25;;;;;;;19.77;16.02;;;;;;;6.41;61.76;99732.59;4482006;32;33611;-84
2023/04/09 03:39:53;;;;;;;20.52;16.98;;;;;;;6.34;61.43;99728.91;4482362;32;35079;-83
2023/04/09 03:42:21;;;;;;;19.08;14.40;;;;;;;6.21;61.77;99729.25;4481487;32;33403;-83
2023/04/09 03:44:49;;;;;;;17.20;14.68;;;;;;;6.39;61.38;99723.91;4481125;32;34840;-83
2023/04/09 03:47:16;;;;;;;18.25;13.73;;;;;;;6.01;62.15;99731.03;4482078;32;34886;-84
2023/04/09 03:49:44;;;;;;;19.08;14.90;;;;;;;6.24;61.44;99726.78;4482066;32;34640;-83
2023/04/09 03:52:12;;;;;;;17.62;15.43;;;;;;;6.09;61.66;99729.63;4481932;32;33220;-82
2023/04/09 03:54:42;;;;;;;16.98;14.90;;;;;;;6.12;61.31;99728.88;4481175;32;33455;-83
2023/04/09 03:57:10;;;;;;;17.17;13.30;;;;;;;6.14;61.36;99732.41;4476704;31;33449;-83
2023/04/09 03:59:38;;;;;;;18.70;14.70;;;;;;;6.13;61.46;99733.19;4480946;31;34377;-83
2023/04/09 04:02:06;;;;;;;16.20;12.15;;;;;;;6.14;61.41;99741.78;4487865;31;33258;-83
2023/04/09 04:04:35;;;;;;;16.92;13.95;;;;;;;6.07;61.72;99730.41;4482435;31;34730;-83
2023/04/09 04:07:03;;;;;;;18.27;13.57;;;;;;;6.12;61.72;99741.75;4482337;31;34932;-83
2023/04/09 04:09:31;;;;;;;16.98;14.40;;;;;;;6.17;61.39;99741.91;4481818;31;33704;-83
2023/04/09 04:12:00;;;;;;;18.30;13.30;;;;;;;6.09;61.81;99741.63;4486849;31;34057;-83
2023/04/09 04:14:30;;;;;;;18.90;15.25;;;;;;;6.15;61.99;99741.87;4483170;31;33813;-83
2023/04/09 04:16:59;;;;;;;18.98;13.32;;;;;;;5.93;62.69;99737.56;4469198;32;35118;-83
2023/04/09 04:19:27;;;;;;;20.98;17.27;;;;;;;5.93;62.91;99737.56;4486572;31;34573;-83
2023/04/09 04:21:54;;;;;;;21.23;17.02;;;;;;;6.10;62.52;99738.25;4481935;31;33416;-83
2023/04/09 04:24:22;;;;;;;21.65;14.80;;;;;;;5.89;63.46;99738.22;4482177;31;33918;-83
2023/04/09 04:26:50;;;;;;;22.05;18.20;;;;;;;6.04;63.25;99745.72;4481635;31;34040;-84
2023/04/09 04:29:18;;;;;;;22.87;17.98;;;;;;;6.13;63.29;99748.63;4481848;31;35002;-84
2023/04/09 04:31:46;;;;;;;22.67;17.75;;;;;;;6.23;63.40;99750.78;4480667;31;33290;-83
2023/04/09 04:34:14;;;;;;;24.60;19.42;;;;;;;6.30;63.36;99749.31;4486750;31;33354;-83
2023/04/09 04:36:43;;;;;;;23.35;19.00;;;;;;;6.32;63.62;99748.53;4479918;31;34844;-83
2023/04/09 04:39:12;;;;;;;25.33;18.62;;;;;;;6.34;63.88;99752.06;4481952;31;33541;-83
2023/04/09 04:41:40;;;;;;;23.58;19.15;;;;;;;6.34;64.28;99758.91;4487534;31;33308;-83
2023/04/09 04:44:07;;;;;;;25.02;19.20;;;;;;;6.25;64.62;99756.87;4481632;32;34658;-83
2023/04/09 04:46:36;;;;;;;22.25;18.23;;;;;;;6.24;64.59;99765.37;4481794;32;34103;-83
2023/04/09 04:49:04;;;;;;;24.63;18.55;;;;;;;6.32;64.52;99765.69;4480705;32;33640;-83
2023/04/09 04:51:32;;;;;;;21.52;17.15;;;;;;;6.44;64.38;99758.47;4481256;31;32722;-84
2023/04/09 04:53:59;;;;;;;23.73;18.60;;;;;;;6.67;64.03;99761.91;4481499;32;34655;-83
2023/04/09 04:56:27;;;;;;;22.15;18.30;;;;;;;6.75;63.75;99765.66;4483624;31;33593;-83
2023/04/09 04:58:55;;;;;;;22.80;18.92;;;;;;;6.76;63.86;99761.38;4484242;31;34485;-83
2023/04/09 05:01:23;;;;;;;25.52;19.70;;;;;;;6.80;63.96;99758.97;4480162;31;33336;-83
2023/04/09 05:03:51;;;;;;;24.00;18.55;;;;;;;6.81;64.16;99759.84;4485528;31;33855;-83
2023/04/09 05:06:20;;;;;;;23.52;18.67;;;;;;;6.89;64.20;99763.56;4481366;31;34786;-83
2023/04/09 05:08:48;;;;;;;24.65;19.10;;;;;;;7.03;64.00;99770.13;4481534;31;33628;-83
2023/04/09 05:11:16;;;;;;;23.45;18.60;;;;;;;7.06;64.11;99769.38;4483474;31;33495;-83
2023/04/09 05:13:44;;;;;;;21.42;17.65;;;;;;;7.05;64.29;99771.06;4481342;31;34798;-85
2023/04/09 05:16:17;;;;;;;23.02;18.12;;;;;;;7.04;64.57;99777.03;4479985;31;33527;-84
2023/04/09 05:18:46;;;;;;;23.55;18.62;;;;;;;7.04;64.83;99774.44;4485128;31;34698;-85
2023/04/09 05:21:13;;;;;;;22.30;17.60;;;;;;;7.34;64.22;99767.75;4486832;31;33294;-84
2023/04/09 05:23:41;;;;;;;22.83;19.33;;;;;;;7.24;64.57;99767.44;4486079;31;33585;-85
2023/04/09 05:26:09;;;;;;;23.70;18.75;;;;;;;7.41;64.34;99762.00;4486634;31;34251;-85
2023/04/09 05:28:37;;;;;;;25.08;19.87;;;;;;;7.32;64.74;99781.50;4483190;31;32404;-84
2023/04/09 05:31:11;;;;;;;21.98;18.55;;;;;;;6.97;66.02;99780.22;4483610;31;33476;-85
2023/04/09 05:33:41;;;;;;;24.75;18.42;;;;;;;6.87;66.03;99772.09;4481656;31;34719;-84
2023/04/09 05:36:17;;;;;;;23.50;18.87;;;;;;;7.12;65.51;99786.75;4483721;31;35193;-85
2023/04/09 05:38:47;;;;;;;24.52;19.45;;;;;;;7.15;65.73;99790.31;4481245;31;34652;-85
2023/04/09 05:41:15;;;;;;;24.60;18.90;;;;;;;7.20;65.55;99785.34;4474655;31;32718;-83
2023/04/09 05:43:46;;;;;;;25.37;19.42;;;;;;;7.36;65.39;99781.59;4484900;31;33926;-83
2023/04/09 05:46:14;;;;;;;25.52;19.37;;;;;;;7.00;66.74;99787.16;4483349;31;34763;-83
2023/04/09 05:48:41;;;;;;;25.48;20.08;;;;;;;6.60;68.19;99784.81;4483401;31;33831;-83
2023/04/09 05:51:10;;;;;;;24.73;19.55;;;;;;;6.87;67.31;99790.13;4483595;31;32438;-83
2023/04/09 05:53:37;;;;;;;26.35;19.87;;;;;;;7.05;66.77;99789.13;4484577;31;34030;-83
2023/04/09 05:56:15;;;;;;;23.27;19.10;;;;;;;6.80;67.41;99783.84;4484163;31;33946;-83
2023/04/09 05:58:45;;;;;;;25.30;19.62;;;;;;;7.07;66.99;99789.16;4483067;31;33937;-84
2023/04/09 06:01:14;;;;;;;24.85;18.58;;;;;;;7.37;66.19;99794.53;4483365;31;33470;-83
2023/04/09 06:03:42;;;;;;;23.10;18.12;;;;;;;7.20;66.75;99796.53;4481212;32;34931;-83
2023/04/09 06:06:10;;;;;;;23.35;18.48;;;;;;;7.46;66.30;99791.41;4468597;31;33960;-83
2023/04/09 06:08:37;;;;;;;22.87;17.67;;;;;;;7.45;66.35;99793.09;4485538;31;33912;-84
2023/04/09 06:11:09;;;;;;;23.20;18.60;;;;;;;7.62;65.86;99790.25;4484192;31;33557;-84
2023/04/09 06:13:37;;;;;;;24.35;18.25;;;;;;;7.69;65.77;99794.78;4482996;31;34823;-84
2023/04/09 06:16:07;;;;;;;23.38;19.20;;;;;;;7.44;66.69;99800.81;4482833;31;35055;-83
2023/04/09 06:18:36;;;;;;;24.67;19.80;;;;;;;7.70;66.07;99797.44;4481252;31;35275;-84
2023/04/09 06:21:05;;;;;;;23.08;17.95;;;;;;;7.56;66.64;99806.38;4482973;31;33541;-84
2023/04/09 06:23:35;;;;;;;22.85;16.87;;;;;;;7.55;66.36;99799.47;4481268;31;34542;-84
2023/04/09 06:26:04;;;;;;;20.17;15.85;;;;;;;7.72;65.80;99798.34;4489202;31;34596;-83
2023/04/09 06:28:32;;;;;;;20.17;15.73;;;;;;;7.65;66.11;99793.81;4482716;31;34526;-83
2023/04/09 06:30:59;;;;;;;21.35;16.58;;;;;;;7.69;64.86;99798.25;4481221;32;34097;-84
2023/04/09 06:33:27;;;;;;;21.50;16.00;;;;;;;7.48;65.34;99795.81;4482949;31;33573;-84
2023/04/09 06:35:56;;;;;;;20.98;16.20;;;;;;;7.64;64.01;99804.94;4481633;31;34031;-84
2023/04/09 06:38:24;;;;;;;20.23;16.25;;;;;;;7.53;64.79;99796.81;4482514;31;35389;-83
2023/04/09 06:40:51;;;;;;;21.85;16.73;;;;;;;7.24;66.15;99800.97;4485444;31;33198;-83
2023/04/09 06:43:18;;;;;;;22.27;17.27;;;;;;;7.23;66.93;99806.94;4482678;31;33510;-84
2023/04/09 06:45:47;;;;;;;23.95;17.85;;;;;;;7.41;66.77;99805.84;4481174;31;34117;-83
2023/04/09 06:48:15;;;;;;;22.37;17.62;;;;;;;7.57;66.22;99808.13;4481073;32;33025;-84
2023/04/09 06:50:43;;;;;;;23.50;18.05;;;;;;;7.69;65.85;99797.34;4482894;31;33957;-84
2023/04/09 06:53:11;;;;;;;24.27;18.08;;;;;;;7.60;66.04;99808.25;4482258;31;33697;-84
2023/04/09 06:55:38;;;;;;;23.52;18.08;;;;;;;7.55;66.10;99809.81;4487487;31;35012;-83
2023/04/09 06:58:06;;;;;;;21.55;17.12;;;;;;;7.78;65.52;99806.31;4487473;31;33777;-83
2023/04/09 07:00:34;;;;;;;22.83;16.90;;;;;;;7.79;65.36;99808.06;4483040;31;34114;-83
2023/04/09 07:03:01;;;;;;;21.48;16.73;;;;;;;7.85;65.26;99809.09;4482549;31;33570;-82
2023/04/09 07:05:30;;;;;;;21.17;16.25;;;;;;;7.59;66.71;99821.97;4480294;32;34834;-83
2023/04/09 07:07:57;;;;;;;22.30;17.65;;;;;;;7.42;67.23;99823.94;4481360;32;33848;-83
2023/04/09 07:10:25;;;;;;;22.83;17.08;;;;;;;7.50;67.12;99819.06;4484501;31;33297;-83
2023/04/09 07:12:52;;;;;;;19.90;15.40;;;;;;;7.73;66.25;99819.91;4486946;31;33485;-83
2023/04/09 07:15:20;;;;;;;19.25;14.40;;;;;;;7.48;66.64;99831.91;4488248;31;34175;-83
2023/04/09 07:17:47;;;;;;;17.83;14.07;;;;;;;7.83;64.85;99821.06;4482616;31;33688;-83
2023/04/09 07:20:15;;;;;;;19.80;14.38;;;;;;;8.14;63.03;99818.66;4480855;31;34174;-83
2023/04/09 07:22:44;;;;;;;17.90;13.68;;;;;;;8.15;63.63;99815.28;4482273;32;33469;-83
2023/04/09 07:25:11;;;;;;;19.23;14.73;;;;;;;7.77;63.93;99821.75;4481049;32;33723;-83
2023/04/09 07:27:39;;;;;;;17.62;14.15;;;;;;;7.94;64.66;99830.06;4482001;32;33368;-83
2023/04/09 07:30:07;;;;;;;17.12;13.23;;;;;;;7.99;64.62;99831.06;4480651;32;33399;-83
2023/04/09 07:32:34;;;;;;;16.77;12.48;;;;;;;8.26;64.27;99829.44;4482155;32;33947;-83
2023/04/09 07:35:03;;;;;;;16.67;13.05;;;;;;;8.48;62.78;99832.72;4482292;32;34235;-83
2023/04/09 07:37:31;;;;;;;17.20;13.38;;;;;;;8.49;60.64;99826.75;4481755;31;34420;-83
2023/04/09 07:39:59;;;;;;;18.12;13.62;;;;;;;8.39;61.32;99820.38;4482047;32;33316;-83
2023/04/09 07:42:27;;;;;;;19.25;14.73;;;;;;;8.26;60.90;99826.84;4482095;32;33890;-83
2023/04/09 07:44:55;;;;;;;16.30;12.02;;;;;;;8.16;61.24;99831.66;4481763;32;34109;-83
2023/04/09 07:47:22;;;;;;;16.48;12.30;;;;;;;8.48;59.70;99832.72;4482044;31;33464;-83
2023/04/09 07:49:50;;;;;;;18.67;13.75;;;;;;;8.52;58.91;99837.16;4481623;31;33546;-83
2023/04/09 07:52:19;;;;;;;18.65;14.98;;;;;;;8.41;59.64;99836.84;4482395;31;33633;-83
2023/04/09 07:54:46;;;;;;;17.48;13.13;;;;;;;8.04;62.25;99845.91;4482336;31;34037;-83
2023/04/09 07:57:13;;;;;;;17.58;13.35;;;;;;;8.18;59.91;99846.38;4481828;32;34439;-83
2023/04/09 07:59:43;;;;;;;18.65;14.07;;;;;;;8.23;60.28;99837.06;4481114;31;33075;-81
2023/04/09 08:02:11;;;;;;;15.68;12.77;;;;;;;8.19;61.50;99840.37;4481657;32;34623;-82
2023/04/09 08:04:41;;;;;;;16.58;12.75;;;;;;;8.69;58.88;99840.28;4481997;32;34140;-82
2023/04/09 08:07:10;;;;;;;16.60;12.45;;;;;;;8.71;58.84;99839.50;4481725;32;34654;-82
2023/04/09 08:09:37;;;;;;;17.23;13.38;;;;;;;8.66;58.94;99837.59;4482141;32;33541;-83
2023/04/09 08:12:05;;;;;;;17.65;13.70;;;;;;;8.99;58.84;99840.34;4481446;32;33988;-82
2023/04/09 08:14:32;;;;;;;22.37;15.27;;;;;;;9.16;58.91;99833.94;4473772;32;34992;-82
2023/04/09 08:17:00;;;;;;;17.90;13.00;;;;;;;9.02;58.03;99830.09;4467701;32;32963;-83
2023/04/09 08:19:29;;;;;;;18.65;16.15;;;;;;;9.22;58.25;99836.72;4483939;31;33639;-82
2023/04/09 08:21:57;;;;;;;17.10;13.30;;;;;;;9.11;56.86;99829.47;4483793;31;34388;-82
2023/04/09 08:24:25;;;;;;;16.42;12.55;;;;;;;8.91;58.21;99837.53;4482579;31;34070;-83
2023/04/09 08:26:53;;;;;;;16.33;12.37;;;;;;;8.78;57.43;99837.97;4482677;31;33832;-83
2023/04/09 08:29:20;;;;;;;16.92;12.57;;;;;;;8.24;59.08;99849.16;4486132;31;32810;-84
2023/04/09 08:31:48;;;;;;;15.18;11.95;;;;;;;8.56;58.59;99846.78;4481335;32;33651;-83
2023/04/09 08:34:19;;;;;;;16.60;11.98;;;;;;;8.51;59.37;99850.91;4467256;32;34343;-83
2023/04/09 08:36:48;;;;;;;16.60;11.85;;;;;;;8.75;59.81;99846.53;4480910;32;34467;-83
2023/04/09 08:39:20;;;;;;;15.77;12.25;;;;;;;8.61;59.81;99852.97;4485807;31;34302;-83
2023/04/09 08:41:47;;;;;;;15.07;11.60;;;;;;;8.43;59.34;99857.53;4483490;31;33924;-83
2023/04/09 08:44:15;;;;;;;14.95;10.48;;;;;;;8.78;58.46;99859.50;4484581;31;34246;-84
2023/04/09 08:46:43;;;;;;;16.87;11.82;;;;;;;9.02;56.78;99861.13;4484496;31;34669;-82
2023/04/09 08:49:11;;;;;;;14.02;10.25;;;;;;;8.68;58.56;99870.44;4492682;31;34330;-83
2023/04/09 08:51:45;;;;;;;16.15;11.82;;;;;;;8.56;58.51;99857.13;4479655;32;34765;-83
2023/04/09 08:54:17;;;;;;;13.80;9.57;;;;;;;9.09;56.17;99865.66;4480981;32;33784;-83
2023/04/09 08:56:45;;;;;;;20.15;13.45;;;;;;;8.62;57.14;99864.19;4479805;32;33523;-82
2023/04/09 08:59:20;;;;;;;12.98;9.98;;;;;;;9.16;57.35;99875.31;4481218;32;33161;-82
2023/04/09 09:01:52;;;;;;;13.43;9.43;;;;;;;9.32;56.00;99876.66;4479890;32;34702;-83
2023/04/09 09:04:21;;;;;;;13.13;9.50;;;;;;;9.45;55.76;99873.59;4481699;31;33970;-83
2023/04/09 09:06:48;;;;;;;12.98;8.18;;;;;;;9.37;54.65;99871.63;4483510;32;33571;-81
2023/04/09 09:09:17;;;;;;;12.18;8.85;;;;;;;9.80;52.72;99870.22;4481786;32;34282;-82
2023/04/09 09:11:48;;;;;;;12.57;8.57;;;;;;;9.79;52.62;99871.94;4482868;32;33984;-83
2023/04/09 09:14:17;;;;;;;13.75;9.15;;;;;;;9.69;53.78;99878.56;4481416;32;33160;-83
2023/04/09 09:16:54;;;;;;;15.68;10.48;;;;;;;10.04;53.85;99873.47;4481957;31;33898;-83
2023/04/09 09:19:25;;;;;;;13.27;9.70;;;;;;;9.22;55.54;99877.22;4483244;31;33320;-83
2023/04/09 09:21:58;;;;;;;13.60;9.93;;;;;;;9.45;55.89;99876.19;4483559;31;33714;-83
2023/04/09 09:24:25;;;;;;;14.00;10.15;;;;;;;9.99;54.08;99872.47;4481702;31;34295;-83
2023/04/09 09:26:53;;;;;;;14.45;10.25;;;;;;;9.42;55.27;99876.09;4483301;31;33953;-84
2023/04/09 09:29:20;;;;;;;16.40;11.23;;;;;;;9.79;53.93;99879.72;4483328;31;34243;-84
2023/04/09 09:31:49;;;;;;;16.35;11.20;;;;;;;9.78;53.18;99877.09;4483234;31;33738;-83
2023/04/09 09:34:21;;;;;;;14.15;10.68;;;;;;;9.91;53.59;99873.97;4481885;32;34892;-84
2023/04/09 09:36:48;;;;;;;14.40;10.63;;;;;;;9.86;54.76;99880.75;4481657;31;33853;-84
2023/04/09 09:39:16;;;;;;;15.98;11.43;;;;;;;9.44;55.47;99869.25;4483282;31;34211;-83
2023/04/09 09:41:45;;;;;;;13.80;10.40;;;;;;;9.83;55.03;99862.53;4481979;31;33956;-83
2023/04/09 09:44:30;;;;;;;15.38;11.52;;;;;;;9.95;54.02;99871.50;4488683;31;35220;-84
2023/04/09 09:46:58;;;;;;;15.05;10.23;;;;;;;9.40;53.60;99863.94;4481912;31;34570;-83
2023/04/09 09:49:25;;;;;;;15.20;10.98;;;;;;;9.52;53.74;99872.06;4483280;31;33496;-84
2023/04/09 09:51:56;;;;;;;14.87;10.73;;;;;;;9.70;53.75;99869.09;4489552;31;34844;-83
2023/04/09 09:54:25;;;;;;;15.90;11.32;;;;;;;9.41;54.45;99868.28;4481858;32;35085;-83
2023/04/09 09:56:54;;;;;;;14.00;10.63;;;;;;;9.55;52.87;99859.22;4481573;31;33593;-82
2023/04/09 09:59:22;;;;;;;17.00;11.35;;;;;;;10.00;51.36;99856.09;4483891;31;33253;-83
2023/04/09 10:01:56;;;;;;;15.07;11.45;;;;;;;9.52;52.88;99859.13;4481778;32;33867;-83
2023/04/09 10:04:26;;;;;;;13.60;10.38;;;;;;;9.99;52.51;99856.91;4481703;31;34193;-83
2023/04/09 10:06:54;;;;;;;16.05;11.43;;;;;;;10.02;52.86;99859.59;4481957;32;33683;-84
2023/04/09 10:09:23;;;;;;;16.20;11.23;;;;;;;10.20;53.99;99864.37;4482703;31;34190;-83
2023/04/09 10:11:50;;;;;;;17.65;12.63;;;;;;;9.80;55.12;99865.91;4481543;32;32982;-83
2023/04/09 10:14:18;;;;;;;16.37;10.70;;;;;;;9.78;55.85;99867.59;4481136;31;34203;-83
2023/04/09 10:16:46;;;;;;;16.00;11.07;;;;;;;10.26;53.42;99861.09;4483017;31;33464;-84
2023/04/09 10:19:14;;;;;;;35.88;24.20;;;;;;;10.34;52.66;99863.06;4482829;31;33339;-83
2023/04/09 10:21:48;;;;;;;16.62;11.32;;;;;;;10.30;52.56;99860.31;4483076;31;32721;-83
2023/04/09 10:24:16;;;;;;;15.43;11.45;;;;;;;10.04;53.49;99857.94;4483104;31;34402;-84
2023/04/09 10:26:45;;;;;;;15.77;11.55;;;;;;;9.42;54.30;99868.31;4476591;31;33098;-83
2023/04/09 10:29:14;;;;;;;16.92;11.55;;;;;;;9.93;53.98;99867.12;4486894;31;34313;-83
2023/04/09 10:32:03;;;;;;;16.48;11.12;;;;;;;10.26;53.64;99853.31;4481103;31;34899;-83
2023/04/09 10:34:37;;;;;;;16.92;11.35;;;;;;;10.19;51.93;99860.91;4481347;31;34063;-82
2023/04/09 10:37:12;;;;;;;18.23;12.43;;;;;;;10.21;52.34;99856.63;4483079;31;33893;-83
2023/04/09 10:39:43;;;;;;;14.85;10.38;;;;;;;10.29;51.53;99861.16;4481172;31;33131;-83
2023/04/09 10:42:13;;;;;;;16.00;11.65;;;;;;;10.20;51.83;99860.06;4483204;31;33878;-83
2023/04/09 10:44:41;;;;;;;19.05;12.25;;;;;;;10.18;51.97;99863.44;4481448;31;34970;-82
2023/04/09 10:47:09;;;;;;;18.27;12.93;;;;;;;10.34;51.72;99850.09;4483195;31;33651;-84
2023/04/09 10:49:40;;;;;;;17.55;12.70;;;;;;;10.07;54.59;99855.41;4483010;31;33321;-83
2023/04/09 10:52:10;;;;;;;16.00;11.12;;;;;;;9.96;52.94;99856.84;4482778;31;33410;-83
2023/04/09 10:54:47;;;;;;;17.45;11.50;;;;;;;10.45;50.59;99852.91;4481033;32;35100;-83
2023/04/09 10:57:16;;;;;;;15.27;10.32;;;;;;;10.57;51.38;99853.25;4469463;31;33536;-83
2023/04/09 10:59:49;;;;;;;14.95;10.90;;;;;;;10.55;50.66;99851.44;4481426;32;33442;-83
2023/04/09 11:02:38;;;;;;;16.00;11.32;;;;;;;10.70;50.33;99850.06;4483337;31;33959;-84
2023/04/09 11:05:37;;;;;;;19.95;13.30;;;;;;;10.65;51.73;99854.28;4482334;31;34570;-83
2023/04/09 11:08:08;;;;;;;23.00;15.93;;;;;;;10.95;51.30;99858.44;4480925;31;33552;-83
2023/04/09 11:10:37;;;;;;;24.35;17.20;;;;;;;10.57;52.45;99858.41;4482516;31;33546;-83
2023/04/09 11:13:05;;;;;;;17.80;12.90;;;;;;;10.42;52.58;99851.16;4482695;31;33796;-83
2023/04/09 11:15:34;;;;;;;13.50;9.93;;;;;;;10.24;53.17;99853.25;4480941;31;34633;-83
2023/04/09 11:18:06;;;;;;;16.80;11.25;;;;;;;9.98;52.80;99850.88;4480989;32;33485;-83
2023/04/09 11:20:33;;;;;;;15.93;11.50;;;;;;;9.83;52.85;99852.19;4482563;31;33736;-83
2023/04/09 11:23:01;;;;;;;14.87;10.82;;;;;;;10.32;51.88;99851.75;4482989;31;34443;-83
2023/04/09 11:25:33;;;;;;;15.60;10.63;;;;;;;9.99;52.30;99852.59;4481706;31;33370;-83
2023/04/09 11:28:02;;;;;;;15.60;10.82;;;;;;;9.82;53.19;99858.22;4481137;32;33953;-83
2023/04/09 11:30:30;;;;;;;15.63;11.27;;;;;;;10.35;52.01;99840.59;4468262;31;33285;-82
2023/04/09 11:32:57;;;;;;;17.98;12.45;;;;;;;10.61;51.68;99849.88;4481376;32;33342;-83
2023/04/09 11:35:25;;;;;;;18.75;13.75;;;;;;;10.75;51.14;99850.19;4481223;32;34046;-84